CFG2FN EDDF-LFPG
Flight info
| Callsign | CFG2FN |
|---|---|
| Flight time | 0h 55m |
| Altitude | 24000 |
| Route | SOBRA2L SOBRA Y180 DIK UN857 TOLVU/N0398F230 DCT RAPOR DCT VEDUS |
| Aircraft | A320/M-SDE3FGHIJ1LORVWXYZ/S |
Departure
| Time | 2026-05-08 12:46 |
|---|---|
| Airport | Frankfurt Main Airport (EDDF) |
Arrival
| Time | 2026-05-08 13:41 |
|---|---|
| Airport | Charles de Gaulle International Airport (LFPG) |
| Time | Latitude | Longitude | Altitude | Speed | Heading |
|---|---|---|---|---|---|
| 2026-05-08 11:25 | 50.03943 | 8.54099 | 344 ft | 0 kts | 249° |
| 2026-05-08 12:35 | 50.03946 | 8.54111 | 349 ft | 4 kts | 250° |
| 2026-05-08 12:36 | 50.03955 | 8.54150 | 355 ft | 4 kts | 249° |
| 2026-05-08 12:36 | 50.03963 | 8.54180 | 349 ft | 4 kts | 244° |
| 2026-05-08 12:36 | 50.03976 | 8.54216 | 351 ft | 4 kts | 224° |
| 2026-05-08 12:36 | 50.03991 | 8.54227 | 352 ft | 1 kts | 160° |
| 2026-05-08 12:39 | 50.03986 | 8.54230 | 345 ft | 2 kts | 160° |
| 2026-05-08 12:40 | 50.03960 | 8.54244 | 351 ft | 4 kts | 161° |
| 2026-05-08 12:40 | 50.03944 | 8.54253 | 347 ft | 0 kts | 161° |
| 2026-05-08 12:40 | 50.03942 | 8.54254 | 347 ft | 2 kts | 160° |
| 2026-05-08 12:40 | 50.03912 | 8.54272 | 347 ft | 5 kts | 159° |
| 2026-05-08 12:41 | 50.03877 | 8.54293 | 350 ft | 6 kts | 159° |
| 2026-05-08 12:41 | 50.03833 | 8.54299 | 346 ft | 6 kts | 201° |
| 2026-05-08 12:41 | 50.03803 | 8.54231 | 354 ft | 11 kts | 248° |
| 2026-05-08 12:41 | 50.03776 | 8.54121 | 347 ft | 11 kts | 249° |
| 2026-05-08 12:42 | 50.03750 | 8.54014 | 348 ft | 10 kts | 249° |
| 2026-05-08 12:42 | 50.03725 | 8.53912 | 345 ft | 10 kts | 250° |
| 2026-05-08 12:42 | 50.03702 | 8.53813 | 344 ft | 10 kts | 250° |
| 2026-05-08 12:42 | 50.03678 | 8.53716 | 350 ft | 9 kts | 249° |
| 2026-05-08 12:43 | 50.03654 | 8.53618 | 341 ft | 10 kts | 249° |
| 2026-05-08 12:43 | 50.03625 | 8.53503 | 341 ft | 11 kts | 250° |
| 2026-05-08 12:43 | 50.03598 | 8.53391 | 339 ft | 11 kts | 249° |
| 2026-05-08 12:43 | 50.03570 | 8.53274 | 338 ft | 13 kts | 250° |
| 2026-05-08 12:44 | 50.03539 | 8.53145 | 337 ft | 12 kts | 249° |
| 2026-05-08 12:44 | 50.03510 | 8.53023 | 335 ft | 12 kts | 249° |
| 2026-05-08 12:44 | 50.03480 | 8.52904 | 336 ft | 12 kts | 247° |
| 2026-05-08 12:44 | 50.03448 | 8.52789 | 333 ft | 12 kts | 248° |
| 2026-05-08 12:45 | 50.03414 | 8.52652 | 334 ft | 13 kts | 244° |
| 2026-05-08 12:45 | 50.03348 | 8.52594 | 336 ft | 11 kts | 181° |
| 2026-05-08 12:45 | 50.03223 | 8.52596 | 336 ft | 36 kts | 179° |
| 2026-05-08 12:45 | 50.02705 | 8.52601 | 333 ft | 110 kts | 180° |
| 2026-05-08 12:46 | 50.01735 | 8.52614 | 334 ft | 166 kts | 179° |
| 2026-05-08 12:46 | 50.00563 | 8.52638 | 957 ft | 167 kts | 179° |
| 2026-05-08 12:46 | 49.99407 | 8.52679 | 1779 ft | 166 kts | 178° |
| 2026-05-08 12:46 | 49.98196 | 8.52743 | 2277 ft | 183 kts | 176° |
| 2026-05-08 12:47 | 49.96861 | 8.52834 | 2724 ft | 201 kts | 177° |
| 2026-05-08 12:47 | 49.95387 | 8.52940 | 3111 ft | 225 kts | 177° |
| 2026-05-08 12:47 | 49.93790 | 8.53050 | 3929 ft | 231 kts | 177° |
| 2026-05-08 12:47 | 49.92184 | 8.53160 | 4920 ft | 231 kts | 178° |
| 2026-05-08 12:48 | 49.90577 | 8.53273 | 5883 ft | 231 kts | 178° |
| 2026-05-08 12:48 | 49.88955 | 8.53390 | 6792 ft | 235 kts | 178° |
| 2026-05-08 12:48 | 49.87314 | 8.53336 | 7627 ft | 237 kts | 190° |
| 2026-05-08 12:48 | 49.85667 | 8.52605 | 8146 ft | 259 kts | 201° |
| 2026-05-08 12:49 | 49.83921 | 8.51605 | 8750 ft | 274 kts | 201° |
| 2026-05-08 12:49 | 49.82112 | 8.50568 | 9603 ft | 280 kts | 201° |
| 2026-05-08 12:49 | 49.80269 | 8.49518 | 10375 ft | 289 kts | 201° |
| 2026-05-08 12:49 | 49.78366 | 8.48291 | 10666 ft | 311 kts | 212° |
| 2026-05-08 12:50 | 49.76774 | 8.45917 | 11008 ft | 329 kts | 239° |
| 2026-05-08 12:50 | 49.76045 | 8.42550 | 11656 ft | 336 kts | 265° |
| 2026-05-08 12:50 | 49.76324 | 8.38950 | 12414 ft | 342 kts | 283° |
| 2026-05-08 12:50 | 49.76903 | 8.35371 | 13228 ft | 345 kts | 283° |
| 2026-05-08 12:51 | 49.77496 | 8.31753 | 14017 ft | 348 kts | 284° |
| 2026-05-08 12:51 | 49.78689 | 8.24416 | 15400 ft | 355 kts | 283° |
| 2026-05-08 12:51 | 49.79291 | 8.20684 | 16085 ft | 358 kts | 283° |
| 2026-05-08 12:52 | 49.79892 | 8.16928 | 16775 ft | 362 kts | 283° |
| 2026-05-08 12:52 | 49.81101 | 8.09285 | 18103 ft | 370 kts | 282° |
| 2026-05-08 12:52 | 49.81715 | 8.05396 | 18721 ft | 373 kts | 282° |
| 2026-05-08 12:53 | 49.82335 | 8.01473 | 19311 ft | 376 kts | 282° |
| 2026-05-08 12:53 | 49.82962 | 7.97519 | 19914 ft | 379 kts | 282° |
| 2026-05-08 12:53 | 49.83591 | 7.93541 | 20519 ft | 382 kts | 282° |
| 2026-05-08 12:53 | 49.84221 | 7.89530 | 21118 ft | 385 kts | 282° |
| 2026-05-08 12:54 | 49.84854 | 7.85481 | 21709 ft | 388 kts | 282° |
| 2026-05-08 12:54 | 49.85489 | 7.81397 | 22292 ft | 391 kts | 282° |
| 2026-05-08 12:54 | 49.86128 | 7.77285 | 22847 ft | 394 kts | 282° |
| 2026-05-08 12:54 | 49.86775 | 7.73144 | 23398 ft | 397 kts | 282° |
| 2026-05-08 12:55 | 49.87430 | 7.68973 | 23876 ft | 399 kts | 282° |
| 2026-05-08 12:55 | 49.88085 | 7.64780 | 24056 ft | 400 kts | 281° |
| 2026-05-08 12:55 | 49.88739 | 7.60575 | 24098 ft | 402 kts | 281° |
| 2026-05-08 12:55 | 49.89384 | 7.56409 | 24101 ft | 402 kts | 281° |
| 2026-05-08 12:56 | 49.90035 | 7.52187 | 24103 ft | 402 kts | 281° |
| 2026-05-08 12:56 | 49.90682 | 7.47971 | 24103 ft | 402 kts | 281° |
| 2026-05-08 12:56 | 49.91327 | 7.43758 | 24100 ft | 402 kts | 281° |
| 2026-05-08 12:56 | 49.91971 | 7.39543 | 24101 ft | 402 kts | 281° |
| 2026-05-08 12:57 | 49.92613 | 7.35321 | 24111 ft | 402 kts | 281° |
| 2026-05-08 12:57 | 49.93252 | 7.31098 | 24111 ft | 402 kts | 281° |
| 2026-05-08 12:57 | 49.93891 | 7.26878 | 24117 ft | 402 kts | 281° |
| 2026-05-08 12:57 | 49.94529 | 7.22663 | 24116 ft | 402 kts | 281° |
| 2026-05-08 12:58 | 49.95168 | 7.18435 | 24115 ft | 402 kts | 281° |
| 2026-05-08 12:58 | 49.95804 | 7.14211 | 24115 ft | 402 kts | 281° |
| 2026-05-08 12:58 | 49.96437 | 7.09986 | 24114 ft | 402 kts | 281° |
| 2026-05-08 12:58 | 49.97067 | 7.05755 | 24111 ft | 402 kts | 281° |
| 2026-05-08 12:59 | 49.97696 | 7.01518 | 24109 ft | 402 kts | 281° |
| 2026-05-08 12:59 | 49.98322 | 6.97295 | 24094 ft | 402 kts | 281° |
| 2026-05-08 12:59 | 49.98939 | 6.93062 | 24096 ft | 401 kts | 279° |
| 2026-05-08 12:59 | 49.99246 | 6.88821 | 24091 ft | 399 kts | 269° |
| 2026-05-08 13:00 | 49.99158 | 6.84460 | 24082 ft | 399 kts | 265° |
| 2026-05-08 13:00 | 49.99024 | 6.80220 | 24091 ft | 399 kts | 266° |
| 2026-05-08 13:00 | 49.98896 | 6.75916 | 24092 ft | 399 kts | 266° |
| 2026-05-08 13:00 | 49.98769 | 6.71607 | 24093 ft | 399 kts | 266° |
| 2026-05-08 13:01 | 49.98639 | 6.67308 | 24096 ft | 398 kts | 266° |
| 2026-05-08 13:01 | 49.98508 | 6.63006 | 24096 ft | 398 kts | 266° |
| 2026-05-08 13:01 | 49.98326 | 6.58704 | 24094 ft | 398 kts | 261° |
| 2026-05-08 13:01 | 49.97744 | 6.54519 | 24104 ft | 396 kts | 251° |
| 2026-05-08 13:02 | 49.96732 | 6.50548 | 24103 ft | 395 kts | 245° |
| 2026-05-08 13:02 | 49.95625 | 6.46640 | 24101 ft | 396 kts | 246° |
| 2026-05-08 13:02 | 49.94524 | 6.42724 | 24101 ft | 396 kts | 246° |
| 2026-05-08 13:02 | 49.93425 | 6.38807 | 24100 ft | 396 kts | 246° |
| 2026-05-08 13:03 | 49.92697 | 6.36216 | 24110 ft | 396 kts | 246° |
| 2026-05-08 13:03 | 49.91594 | 6.32298 | 24106 ft | 396 kts | 246° |
| 2026-05-08 13:03 | 49.90492 | 6.28385 | 24097 ft | 396 kts | 246° |
| 2026-05-08 13:03 | 49.89373 | 6.24482 | 24094 ft | 396 kts | 245° |
| 2026-05-08 13:04 | 49.88242 | 6.20585 | 24089 ft | 396 kts | 245° |
| 2026-05-08 13:04 | 49.87130 | 6.16664 | 24087 ft | 397 kts | 246° |
| 2026-05-08 13:04 | 49.85941 | 6.12813 | 24086 ft | 396 kts | 239° |
| 2026-05-08 13:04 | 49.84426 | 6.09258 | 24086 ft | 396 kts | 234° |
| 2026-05-08 13:05 | 49.82836 | 6.05772 | 24087 ft | 396 kts | 234° |
| 2026-05-08 13:05 | 49.81240 | 6.02292 | 24077 ft | 396 kts | 234° |
| 2026-05-08 13:05 | 49.79642 | 5.98818 | 24082 ft | 396 kts | 234° |
| 2026-05-08 13:05 | 49.78045 | 5.95353 | 24086 ft | 395 kts | 234° |
| 2026-05-08 13:06 | 49.76447 | 5.91896 | 24092 ft | 395 kts | 234° |
| 2026-05-08 13:06 | 49.74872 | 5.88410 | 24090 ft | 395 kts | 238° |
| 2026-05-08 13:06 | 49.73626 | 5.84632 | 24099 ft | 396 kts | 248° |
| 2026-05-08 13:06 | 49.72697 | 5.80620 | 24092 ft | 396 kts | 250° |
| 2026-05-08 13:07 | 49.71776 | 5.76604 | 24088 ft | 396 kts | 250° |
| 2026-05-08 13:07 | 49.70847 | 5.72594 | 24087 ft | 396 kts | 249° |
| 2026-05-08 13:07 | 49.69925 | 5.68642 | 24086 ft | 396 kts | 249° |
| 2026-05-08 13:07 | 49.68990 | 5.64633 | 24085 ft | 397 kts | 249° |
| 2026-05-08 13:08 | 49.68053 | 5.60625 | 24082 ft | 397 kts | 249° |
| 2026-05-08 13:08 | 49.67114 | 5.56618 | 24080 ft | 397 kts | 249° |
| 2026-05-08 13:08 | 49.66174 | 5.52618 | 24081 ft | 397 kts | 249° |
| 2026-05-08 13:08 | 49.65233 | 5.48614 | 24082 ft | 397 kts | 249° |
| 2026-05-08 13:09 | 49.64293 | 5.44618 | 24085 ft | 397 kts | 249° |
| 2026-05-08 13:09 | 49.63351 | 5.40616 | 24086 ft | 397 kts | 249° |
| 2026-05-08 13:09 | 49.62407 | 5.36610 | 24088 ft | 397 kts | 250° |
| 2026-05-08 13:09 | 49.61497 | 5.32591 | 24079 ft | 397 kts | 251° |
| 2026-05-08 13:10 | 49.60627 | 5.28544 | 24079 ft | 397 kts | 251° |
| 2026-05-08 13:10 | 49.59789 | 5.24486 | 24079 ft | 398 kts | 253° |
| 2026-05-08 13:10 | 49.59270 | 5.20302 | 24078 ft | 398 kts | 263° |
| 2026-05-08 13:10 | 49.59198 | 5.16029 | 24079 ft | 399 kts | 270° |
| 2026-05-08 13:11 | 49.59252 | 5.11801 | 24073 ft | 399 kts | 269° |
| 2026-05-08 13:11 | 49.59292 | 5.07523 | 24074 ft | 399 kts | 269° |
| 2026-05-08 13:11 | 49.59324 | 5.03242 | 24074 ft | 399 kts | 269° |
| 2026-05-08 13:11 | 49.59352 | 4.98962 | 24075 ft | 399 kts | 269° |
| 2026-05-08 13:12 | 49.59379 | 4.94686 | 24075 ft | 399 kts | 269° |
| 2026-05-08 13:12 | 49.59403 | 4.90401 | 24084 ft | 400 kts | 269° |
| 2026-05-08 13:12 | 49.59428 | 4.86109 | 24079 ft | 400 kts | 269° |
| 2026-05-08 13:12 | 49.59453 | 4.81819 | 24078 ft | 400 kts | 269° |
| 2026-05-08 13:13 | 49.59478 | 4.77527 | 24074 ft | 401 kts | 269° |
| 2026-05-08 13:13 | 49.59505 | 4.73231 | 24074 ft | 401 kts | 269° |
| 2026-05-08 13:13 | 49.59530 | 4.68936 | 24074 ft | 401 kts | 269° |
| 2026-05-08 13:13 | 49.59557 | 4.64626 | 24072 ft | 401 kts | 269° |
| 2026-05-08 13:14 | 49.59580 | 4.60331 | 24077 ft | 401 kts | 269° |
| 2026-05-08 13:14 | 49.59599 | 4.56035 | 24076 ft | 401 kts | 269° |
| 2026-05-08 13:14 | 49.59614 | 4.51735 | 24076 ft | 401 kts | 269° |
| 2026-05-08 13:14 | 49.59627 | 4.47437 | 24081 ft | 401 kts | 269° |
| 2026-05-08 13:15 | 49.59638 | 4.43139 | 24079 ft | 401 kts | 269° |
| 2026-05-08 13:15 | 49.59647 | 4.38837 | 24077 ft | 401 kts | 269° |
| 2026-05-08 13:15 | 49.59658 | 4.34543 | 24077 ft | 401 kts | 269° |
| 2026-05-08 13:15 | 49.59665 | 4.30243 | 24077 ft | 401 kts | 269° |
| 2026-05-08 13:16 | 49.59670 | 4.25951 | 24082 ft | 401 kts | 269° |
| 2026-05-08 13:16 | 49.59673 | 4.21673 | 23887 ft | 397 kts | 269° |
| 2026-05-08 13:16 | 49.59675 | 4.17434 | 23627 ft | 393 kts | 269° |
| 2026-05-08 13:16 | 49.59678 | 4.13259 | 23086 ft | 387 kts | 268° |
| 2026-05-08 13:17 | 49.59430 | 4.09165 | 22572 ft | 381 kts | 258° |
| 2026-05-08 13:17 | 49.58704 | 4.05275 | 22077 ft | 376 kts | 248° |
| 2026-05-08 13:17 | 49.57565 | 4.01743 | 21621 ft | 371 kts | 238° |
| 2026-05-08 13:17 | 49.56168 | 3.98429 | 21164 ft | 366 kts | 237° |
| 2026-05-08 13:18 | 49.54788 | 3.95158 | 20698 ft | 363 kts | 237° |
| 2026-05-08 13:18 | 49.53423 | 3.91910 | 20229 ft | 359 kts | 237° |
| 2026-05-08 13:18 | 49.52072 | 3.88696 | 19764 ft | 356 kts | 237° |
| 2026-05-08 13:18 | 49.50731 | 3.85508 | 19293 ft | 354 kts | 237° |
| 2026-05-08 13:19 | 49.49401 | 3.82346 | 18821 ft | 352 kts | 237° |
| 2026-05-08 13:19 | 49.48106 | 3.79158 | 18312 ft | 350 kts | 242° |
| 2026-05-08 13:19 | 49.47153 | 3.75728 | 17784 ft | 349 kts | 251° |
| 2026-05-08 13:19 | 49.46531 | 3.72136 | 17293 ft | 347 kts | 255° |
| 2026-05-08 13:20 | 49.45936 | 3.68559 | 16837 ft | 343 kts | 255° |
| 2026-05-08 13:20 | 49.45344 | 3.65064 | 16637 ft | 333 kts | 254° |
| 2026-05-08 13:20 | 49.44763 | 3.61640 | 16259 ft | 329 kts | 254° |
| 2026-05-08 13:20 | 49.44190 | 3.58248 | 15852 ft | 328 kts | 254° |
| 2026-05-08 13:21 | 49.43615 | 3.54865 | 15605 ft | 328 kts | 254° |
| 2026-05-08 13:21 | 49.43035 | 3.51473 | 15416 ft | 328 kts | 254° |
| 2026-05-08 13:21 | 49.42456 | 3.48090 | 15230 ft | 327 kts | 254° |
| 2026-05-08 13:21 | 49.41834 | 3.44738 | 15042 ft | 326 kts | 249° |
| 2026-05-08 13:22 | 49.40997 | 3.41513 | 14755 ft | 325 kts | 247° |
| 2026-05-08 13:22 | 49.40153 | 3.38352 | 14492 ft | 324 kts | 246° |
| 2026-05-08 13:22 | 49.39285 | 3.35118 | 14203 ft | 323 kts | 246° |
| 2026-05-08 13:22 | 49.38429 | 3.31936 | 13928 ft | 322 kts | 246° |
| 2026-05-08 13:23 | 49.37573 | 3.28770 | 13635 ft | 321 kts | 246° |
| 2026-05-08 13:23 | 49.36731 | 3.25655 | 13358 ft | 320 kts | 246° |
| 2026-05-08 13:23 | 49.35881 | 3.22505 | 13120 ft | 318 kts | 246° |
| 2026-05-08 13:23 | 49.35036 | 3.19371 | 13047 ft | 317 kts | 246° |
| 2026-05-08 13:24 | 49.34190 | 3.16237 | 13062 ft | 318 kts | 246° |
| 2026-05-08 13:24 | 49.33344 | 3.13106 | 13065 ft | 318 kts | 246° |
| 2026-05-08 13:24 | 49.32498 | 3.09975 | 13069 ft | 318 kts | 247° |
| 2026-05-08 13:24 | 49.31655 | 3.06842 | 13065 ft | 318 kts | 247° |
| 2026-05-08 13:25 | 49.30809 | 3.03709 | 13063 ft | 318 kts | 246° |
| 2026-05-08 13:25 | 49.29958 | 3.00571 | 13059 ft | 318 kts | 246° |
| 2026-05-08 13:25 | 49.29107 | 2.97435 | 13060 ft | 318 kts | 246° |
| 2026-05-08 13:25 | 49.28254 | 2.94309 | 13060 ft | 318 kts | 246° |
| 2026-05-08 13:26 | 49.27397 | 2.91175 | 13058 ft | 319 kts | 246° |
| 2026-05-08 13:26 | 49.26555 | 2.88087 | 13060 ft | 318 kts | 246° |
| 2026-05-08 13:26 | 49.25693 | 2.84927 | 13059 ft | 317 kts | 246° |
| 2026-05-08 13:26 | 49.24856 | 2.81867 | 13062 ft | 316 kts | 246° |
| 2026-05-08 13:27 | 49.24003 | 2.78759 | 13057 ft | 316 kts | 246° |
| 2026-05-08 13:27 | 49.23153 | 2.75661 | 13059 ft | 316 kts | 246° |
| 2026-05-08 13:27 | 49.22301 | 2.72562 | 13060 ft | 316 kts | 246° |
| 2026-05-08 13:27 | 49.21446 | 2.69465 | 13004 ft | 314 kts | 246° |
| 2026-05-08 13:28 | 49.20597 | 2.66393 | 12560 ft | 312 kts | 246° |
| 2026-05-08 13:28 | 49.19753 | 2.63341 | 12118 ft | 311 kts | 246° |
| 2026-05-08 13:28 | 49.18917 | 2.60304 | 11678 ft | 309 kts | 246° |
| 2026-05-08 13:28 | 49.18219 | 2.57209 | 11261 ft | 308 kts | 258° |
| 2026-05-08 13:29 | 49.18033 | 2.53966 | 10840 ft | 306 kts | 268° |
| 2026-05-08 13:29 | 49.17971 | 2.50774 | 10699 ft | 295 kts | 267° |
| 2026-05-08 13:29 | 49.17907 | 2.47694 | 10529 ft | 286 kts | 267° |
| 2026-05-08 13:29 | 49.17843 | 2.44682 | 10234 ft | 282 kts | 267° |
| 2026-05-08 13:30 | 49.17778 | 2.41737 | 9868 ft | 281 kts | 267° |
| 2026-05-08 13:30 | 49.17709 | 2.38719 | 9441 ft | 280 kts | 267° |
| 2026-05-08 13:30 | 49.17353 | 2.35826 | 9099 ft | 276 kts | 250° |
| 2026-05-08 13:30 | 49.16654 | 2.33122 | 9052 ft | 278 kts | 247° |
| 2026-05-08 13:31 | 49.15913 | 2.30403 | 9059 ft | 278 kts | 247° |
| 2026-05-08 13:31 | 49.15166 | 2.27670 | 9058 ft | 279 kts | 247° |
| 2026-05-08 13:31 | 49.14417 | 2.24941 | 9056 ft | 279 kts | 247° |
| 2026-05-08 13:31 | 49.13663 | 2.22203 | 9057 ft | 280 kts | 247° |
| 2026-05-08 13:32 | 49.12907 | 2.19458 | 8948 ft | 282 kts | 247° |
| 2026-05-08 13:32 | 49.12149 | 2.16696 | 8530 ft | 281 kts | 247° |
| 2026-05-08 13:32 | 49.11393 | 2.13942 | 8071 ft | 282 kts | 247° |
| 2026-05-08 13:32 | 49.10634 | 2.11183 | 7597 ft | 282 kts | 247° |
| 2026-05-08 13:33 | 49.09874 | 2.08433 | 7159 ft | 279 kts | 247° |
| 2026-05-08 13:33 | 49.09123 | 2.05727 | 6713 ft | 274 kts | 246° |
| 2026-05-08 13:33 | 49.08125 | 2.03376 | 6273 ft | 265 kts | 222° |
| 2026-05-08 13:33 | 49.06560 | 2.02047 | 5866 ft | 255 kts | 192° |
| 2026-05-08 13:34 | 49.04814 | 2.01703 | 5473 ft | 245 kts | 181° |
| 2026-05-08 13:34 | 49.03205 | 2.02051 | 5097 ft | 234 kts | 155° |
| 2026-05-08 13:34 | 49.01903 | 2.03429 | 4722 ft | 227 kts | 129° |
| 2026-05-08 13:34 | 49.01136 | 2.05496 | 4341 ft | 226 kts | 104° |
| 2026-05-08 13:35 | 49.00949 | 2.07854 | 4025 ft | 222 kts | 92° |
| 2026-05-08 13:35 | 49.00852 | 2.10184 | 4007 ft | 215 kts | 93° |
| 2026-05-08 13:35 | 49.00755 | 2.12466 | 4012 ft | 216 kts | 92° |
| 2026-05-08 13:35 | 49.00651 | 2.14704 | 4009 ft | 215 kts | 95° |
| 2026-05-08 13:36 | 49.00564 | 2.16965 | 4011 ft | 213 kts | 89° |
| 2026-05-08 13:36 | 49.00630 | 2.19223 | 4012 ft | 213 kts | 85° |
| 2026-05-08 13:36 | 49.00750 | 2.21483 | 4005 ft | 215 kts | 84° |
| 2026-05-08 13:36 | 49.00880 | 2.23761 | 3989 ft | 217 kts | 84° |
| 2026-05-08 13:37 | 49.01009 | 2.26037 | 3781 ft | 213 kts | 84° |
| 2026-05-08 13:37 | 49.01135 | 2.28270 | 3520 ft | 210 kts | 84° |
| 2026-05-08 13:37 | 49.01259 | 2.30475 | 3248 ft | 209 kts | 84° |
| 2026-05-08 13:37 | 49.01381 | 2.32654 | 2964 ft | 203 kts | 84° |
| 2026-05-08 13:38 | 49.01497 | 2.34736 | 2730 ft | 191 kts | 84° |
| 2026-05-08 13:38 | 49.01605 | 2.36684 | 2477 ft | 179 kts | 84° |
| 2026-05-08 13:38 | 49.01705 | 2.38494 | 2234 ft | 161 kts | 84° |
| 2026-05-08 13:38 | 49.01794 | 2.40100 | 2022 ft | 145 kts | 83° |
| 2026-05-08 13:39 | 49.01878 | 2.41577 | 1803 ft | 135 kts | 84° |
| 2026-05-08 13:39 | 49.01954 | 2.42965 | 1640 ft | 131 kts | 85° |
| 2026-05-08 13:39 | 49.02027 | 2.44344 | 1484 ft | 130 kts | 84° |
| 2026-05-08 13:39 | 49.02099 | 2.45713 | 1286 ft | 130 kts | 84° |
| 2026-05-08 13:40 | 49.02175 | 2.47097 | 1125 ft | 131 kts | 85° |
| 2026-05-08 13:40 | 49.02249 | 2.48455 | 957 ft | 130 kts | 84° |
| 2026-05-08 13:40 | 49.02324 | 2.49807 | 793 ft | 128 kts | 85° |
| 2026-05-08 13:40 | 49.02399 | 2.51159 | 604 ft | 128 kts | 85° |
| 2026-05-08 13:41 | 49.02476 | 2.52502 | 402 ft | 126 kts | 85° |
| 2026-05-08 13:41 | 49.02543 | 2.53751 | 359 ft | 103 kts | 85° |
| 2026-05-08 13:41 | 49.02586 | 2.54585 | 355 ft | 53 kts | 85° |
| 2026-05-08 13:41 | 49.02608 | 2.54968 | 356 ft | 31 kts | 84° |
| 2026-05-08 13:42 | 49.02602 | 2.55175 | 359 ft | 16 kts | 102° |
| 2026-05-08 13:42 | 49.02560 | 2.55335 | 360 ft | 16 kts | 117° |
| 2026-05-08 13:42 | 49.02513 | 2.55474 | 358 ft | 15 kts | 116° |
| 2026-05-08 13:42 | 49.02473 | 2.55587 | 357 ft | 12 kts | 131° |
| 2026-05-08 13:43 | 49.02393 | 2.55615 | 354 ft | 11 kts | 176° |
| 2026-05-08 13:43 | 49.02321 | 2.55624 | 362 ft | 10 kts | 175° |
| 2026-05-08 13:43 | 49.02255 | 2.55633 | 354 ft | 9 kts | 175° |
| 2026-05-08 13:43 | 49.02197 | 2.55641 | 359 ft | 8 kts | 175° |
| 2026-05-08 13:44 | 49.02147 | 2.55647 | 354 ft | 7 kts | 175° |
| 2026-05-08 13:44 | 49.02102 | 2.55654 | 354 ft | 6 kts | 174° |
| 2026-05-08 13:44 | 49.02062 | 2.55659 | 356 ft | 5 kts | 176° |
| 2026-05-08 13:44 | 49.02024 | 2.55663 | 354 ft | 7 kts | 176° |
| 2026-05-08 13:45 | 49.01970 | 2.55668 | 354 ft | 7 kts | 176° |
| 2026-05-08 13:45 | 49.01923 | 2.55670 | 358 ft | 6 kts | 188° |
| 2026-05-08 13:45 | 49.01896 | 2.55628 | 356 ft | 5 kts | 245° |
| 2026-05-08 13:45 | 49.01887 | 2.55561 | 362 ft | 10 kts | 264° |
| 2026-05-08 13:46 | 49.01880 | 2.55438 | 355 ft | 12 kts | 265° |
| 2026-05-08 13:46 | 49.01874 | 2.55319 | 358 ft | 11 kts | 265° |
| 2026-05-08 13:46 | 49.01868 | 2.55207 | 355 ft | 10 kts | 265° |
| 2026-05-08 13:46 | 49.01862 | 2.55104 | 357 ft | 10 kts | 265° |
| 2026-05-08 13:47 | 49.01856 | 2.55007 | 355 ft | 9 kts | 265° |
| 2026-05-08 13:47 | 49.01851 | 2.54916 | 355 ft | 8 kts | 263° |
| 2026-05-08 13:47 | 49.01819 | 2.54859 | 356 ft | 7 kts | 195° |
| 2026-05-08 13:47 | 49.01771 | 2.54863 | 355 ft | 8 kts | 174° |
| 2026-05-08 13:48 | 49.01696 | 2.54873 | 358 ft | 13 kts | 174° |
| 2026-05-08 13:48 | 49.01600 | 2.54885 | 363 ft | 14 kts | 175° |
| 2026-05-08 13:48 | 49.01497 | 2.54899 | 357 ft | 15 kts | 175° |
| 2026-05-08 13:48 | 49.01388 | 2.54922 | 362 ft | 16 kts | 167° |
| 2026-05-08 13:49 | 49.01300 | 2.54958 | 361 ft | 12 kts | 164° |
| 2026-05-08 13:49 | 49.01241 | 2.54999 | 359 ft | 9 kts | 127° |
| 2026-05-08 13:49 | 49.01240 | 2.55090 | 361 ft | 9 kts | 84° |
| 2026-05-08 13:49 | 49.01245 | 2.55194 | 356 ft | 10 kts | 84° |
| 2026-05-08 13:50 | 49.01250 | 2.55310 | 355 ft | 12 kts | 85° |
| 2026-05-08 13:50 | 49.01257 | 2.55430 | 358 ft | 10 kts | 85° |
| 2026-05-08 13:50 | 49.01259 | 2.55504 | 355 ft | 5 kts | 97° |
| 2026-05-08 13:50 | 49.01235 | 2.55531 | 357 ft | 4 kts | 166° |
| 2026-05-08 13:51 | 49.01207 | 2.55535 | 357 ft | 4 kts | 175° |
| 2026-05-08 13:51 | 49.01181 | 2.55538 | 359 ft | 2 kts | 175° |
| 2026-05-08 13:51 | 49.01175 | 2.55539 | 357 ft | 0 kts | 175° |